This is the latest recevied weather packets stored in our database for station/object WA1OUI. If no packets are shown the sender has not sent any weather packets the latest 10 day(s).
| Time | Temp. | Humidity | Pressure | Rain* | Wind** | Luminosity | Snow |
|---|---|---|---|---|---|---|---|
| 1777896669 | 11.11° C | 54% | 1010.2 hPa | 0 mm | - | 40 W/m² | - |
| 1777896366 | 11.11° C | 53% | 1010.4 hPa | 0 mm | - | 39 W/m² | - |
| 1777896064 | 10.56° C | 57% | 1010.4 hPa | 0 mm | - | 40 W/m² | - |
| 1777895762 | 10° C | 57% | 1010.5 hPa | 0 mm | - | 37 W/m² | - |
| 1777895459 | 9.44° C | 60% | 1010.6 hPa | 0 mm | - | 36 W/m² | - |
| 1777894248 | 6.67° C | 75% | 1010.4 hPa | 0 mm | - | 35 W/m² | - |
| 1777893945 | 6.11° C | 77% | 1010.4 hPa | 0 mm | - | 32 W/m² | - |
| 1777893641 | 5.56° C | 77% | 1010.3 hPa | 0 mm | - | 30 W/m² | - |
| 1777893337 | 5° C | 79% | 1010.5 hPa | 0 mm | - | 28 W/m² | - |
| 1777893033 | 4.44° C | 83% | 1010.4 hPa | 0 mm | - | 28 W/m² | - |
| 1777892731 | 3.89° C | 84% | 1010.4 hPa | 0 mm | - | 27 W/m² | - |
| 1777892427 | 3.89° C | 85% | 1010.4 hPa | 0 mm | - | 25 W/m² | - |
| 1777892123 | 3.33° C | 86% | 1010.4 hPa | 0 mm | - | 25 W/m² | - |
| 1777891517 | 2.78° C | 87% | 1010.3 hPa | 0 mm | - | 20 W/m² | - |
| 1777890609 | 2.22° C | 88% | 1010.4 hPa | 0 mm | - | 17 W/m² | - |
| 1777890000 | 2.22° C | 88% | 1010.4 hPa | 0 mm | - | 13 W/m² | - |
| 1777889698 | 2.22° C | 89% | 1010.4 hPa | 0 mm | - | 10 W/m² | - |
| 1777889395 | 2.22° C | 89% | 1010.2 hPa | 0 mm | - | 8 W/m² | - |
| 1777889093 | 2.22° C | 88% | 1010.4 hPa | 0 mm | - | 6 W/m² | - |
| 1777888790 | 2.22° C | 88% | 1010.2 hPa | 0 mm | - | 5 W/m² | - |
| 1777887577 | 2.22° C | 88% | 1010.1 hPa | 0 mm | - | 1 W/m² | - |
| 1777887272 | 2.22° C | 88% | 1010.1 hPa | 0 mm | - | 0 W/m² | - |
| 1777886969 | 2.22° C | 87% | 1010.1 hPa | 0 mm | - | 0 W/m² | - |
| 1777886665 | 2.22° C | 87% | 1009.9 hPa | 0 mm | - | 0 W/m² | - |
| 1777886362 | 2.22° C | 87% | 1009.8 hPa | 0 mm | - | 0 W/m² | - |
* Rain latest hour (hover to see other rain measurements)
** Current wind speed in m/s (hover to see current wind gust speed)